createdAt,value
2022-09-17T09:36:21.903Z,12.30
2022-09-17T09:41:19.340Z,12.30
2022-09-17T09:46:42.825Z,12.50
2022-09-17T09:51:50.205Z,12.60
2022-09-17T09:56:55.019Z,12.70
2022-09-17T10:01:49.258Z,12.80
2022-09-17T10:06:44.630Z,12.90
2022-09-17T10:11:38.246Z,13.00
2022-09-17T10:16:32.432Z,13.10
2022-09-17T10:21:33.130Z,13.20
2022-09-17T10:26:31.473Z,13.50
2022-09-17T10:31:25.669Z,13.70
2022-09-17T10:36:39.044Z,13.80
2022-09-17T10:42:00.077Z,13.80
2022-09-17T10:46:54.387Z,13.70
2022-09-17T10:51:49.001Z,13.80
2022-09-17T10:56:46.158Z,13.90
2022-09-17T11:01:53.749Z,13.80
2022-09-17T11:07:07.565Z,13.80
2022-09-17T11:12:18.017Z,13.80
2022-09-17T11:17:23.905Z,13.90
2022-09-17T11:22:27.671Z,13.90
2022-09-17T11:27:44.391Z,14.00
2022-09-17T11:33:10.666Z,14.20
2022-09-17T11:38:08.579Z,14.40
2022-09-17T11:43:06.745Z,14.60
2022-09-17T11:48:08.504Z,14.70
2022-09-17T11:53:11.249Z,14.80
2022-09-17T11:58:11.571Z,14.80
2022-09-17T12:03:15.566Z,14.80
2022-09-17T12:08:16.807Z,14.80
2022-09-17T12:13:21.646Z,14.80
2022-09-17T12:18:32.689Z,14.90
2022-09-17T12:23:39.156Z,14.90
2022-09-17T12:28:40.106Z,14.80
2022-09-17T12:33:39.011Z,14.60
2022-09-17T12:38:53.890Z,14.70
2022-09-17T12:44:00.780Z,14.70
2022-09-17T12:49:19.156Z,14.70
2022-09-17T12:54:23.553Z,14.70
2022-09-17T12:59:20.533Z,14.50
2022-09-17T13:04:50.157Z,14.20
2022-09-17T13:10:13.976Z,14.10
2022-09-17T13:15:38.283Z,14.10
2022-09-17T13:20:38.958Z,14.10
2022-09-17T13:25:32.526Z,14.00
2022-09-17T13:30:26.320Z,14.00
2022-09-17T13:35:50.277Z,13.90
2022-09-17T13:57:54.023Z,13.80
2022-09-17T14:02:48.463Z,13.70
2022-09-17T14:24:03.215Z,13.50
2022-09-17T14:29:04.614Z,13.30
2022-09-17T14:33:59.004Z,13.30
2022-09-17T14:54:50.477Z,13.60
2022-09-17T15:20:24.063Z,13.30
2022-09-17T15:47:30.022Z,13.30
